createdAt,value
2022-11-10T00:00:11.262Z,11.00
2022-11-10T00:02:04.680Z,11.00
2022-11-10T00:03:59.111Z,11.00
2022-11-10T00:05:52.203Z,11.00
2022-11-10T00:07:46.675Z,11.00
2022-11-10T00:09:39.755Z,11.00
2022-11-10T00:11:33.310Z,11.00
2022-11-10T00:13:29.104Z,11.00
2022-11-10T00:15:39.662Z,11.00
2022-11-10T00:17:31.954Z,11.00
2022-11-10T00:19:25.018Z,11.00
2022-11-10T00:21:20.192Z,11.00
2022-11-10T00:23:14.582Z,11.10
2022-11-10T00:25:09.308Z,11.00
2022-11-10T00:27:02.515Z,11.10
2022-11-10T00:28:55.785Z,11.00
2022-11-10T00:30:48.919Z,11.10
2022-11-10T00:32:42.164Z,11.10
2022-11-10T00:34:35.505Z,11.10
2022-11-10T00:36:28.661Z,11.10
2022-11-10T00:38:23.041Z,11.10
2022-11-10T00:40:16.697Z,11.10
2022-11-10T00:42:10.090Z,11.10
2022-11-10T00:44:04.154Z,11.10
2022-11-10T00:45:57.657Z,11.10
2022-11-10T00:47:50.751Z,11.10
2022-11-10T00:49:43.806Z,11.10
2022-11-10T00:51:36.900Z,11.10
2022-11-10T00:53:31.348Z,11.10
2022-11-10T00:55:24.381Z,11.10
2022-11-10T00:57:17.486Z,11.10
2022-11-10T00:59:10.531Z,11.10
2022-11-10T01:01:05.538Z,11.10
2022-11-10T01:02:59.040Z,11.10
2022-11-10T01:04:52.143Z,11.10
2022-11-10T01:06:47.816Z,11.10
2022-11-10T01:08:43.621Z,11.10
2022-11-10T01:10:36.993Z,11.10
2022-11-10T01:12:31.045Z,11.10
2022-11-10T01:14:24.239Z,11.10
2022-11-10T01:16:20.264Z,11.10
2022-11-10T01:18:13.389Z,11.10
2022-11-10T01:20:08.580Z,11.10
2022-11-10T01:22:01.855Z,11.10
2022-11-10T01:23:57.397Z,11.10
2022-11-10T01:25:50.475Z,11.00
2022-11-10T01:27:43.755Z,11.00
2022-11-10T01:29:37.016Z,11.00
2022-11-10T01:31:30.084Z,11.00
2022-11-10T01:33:23.474Z,11.00
2022-11-10T01:35:17.095Z,11.00
2022-11-10T01:37:10.512Z,11.00
2022-11-10T01:39:05.052Z,11.00
2022-11-10T01:40:59.256Z,11.00
2022-11-10T01:42:55.019Z,11.00
2022-11-10T01:45:44.353Z,11.00
2022-11-10T01:47:38.090Z,11.00
2022-11-10T01:49:33.596Z,11.00
2022-11-10T01:51:33.456Z,11.00
2022-11-10T01:53:31.085Z,11.00
2022-11-10T01:55:26.903Z,11.00
2022-11-10T01:57:20.178Z,11.00
2022-11-10T01:59:19.578Z,11.00
2022-11-10T02:01:12.716Z,11.00
2022-11-10T02:03:14.656Z,11.00
2022-11-10T02:05:10.226Z,11.00
2022-11-10T02:07:03.623Z,11.00
2022-11-10T02:08:59.297Z,11.00
2022-11-10T02:10:53.871Z,11.00
2022-11-10T02:12:48.730Z,11.00
2022-11-10T02:14:42.675Z,11.00
2022-11-10T02:16:37.327Z,11.00
2022-11-10T02:18:30.719Z,11.00
2022-11-10T02:20:24.252Z,11.00
2022-11-10T02:22:18.760Z,11.00
2022-11-10T02:24:12.120Z,11.00
2022-11-10T02:26:07.830Z,11.00
2022-11-10T02:28:00.892Z,11.00
2022-11-10T02:29:54.325Z,11.00
2022-11-10T02:31:47.563Z,11.00
2022-11-10T02:33:40.674Z,11.00
2022-11-10T02:35:33.716Z,11.00
2022-11-10T02:37:28.227Z,11.00
2022-11-10T02:39:21.308Z,11.00
2022-11-10T02:41:14.666Z,11.00
2022-11-10T02:43:17.338Z,11.00
2022-11-10T02:45:11.219Z,11.00
2022-11-10T02:47:04.371Z,11.00
2022-11-10T02:48:57.742Z,11.00
2022-11-10T02:50:50.849Z,11.00
2022-11-10T02:52:45.264Z,11.00
2022-11-10T02:54:38.383Z,11.00
2022-11-10T02:56:31.467Z,11.00
2022-11-10T02:58:24.766Z,11.00
2022-11-10T03:00:19.064Z,11.00
2022-11-10T03:02:12.183Z,11.00
2022-11-10T03:04:07.018Z,11.00
2022-11-10T03:06:00.277Z,11.00
2022-11-10T03:07:56.445Z,11.00
2022-11-10T03:09:51.485Z,11.00
2022-11-10T03:11:44.650Z,11.00
2022-11-10T03:13:59.877Z,10.90
2022-11-10T03:15:51.232Z,11.00
2022-11-10T03:17:44.439Z,11.00
2022-11-10T03:19:37.488Z,11.00
2022-11-10T03:21:30.590Z,11.00
2022-11-10T03:23:25.180Z,11.00
2022-11-10T03:25:18.618Z,10.90
2022-11-10T03:27:11.643Z,10.90
2022-11-10T03:29:04.812Z,11.00
2022-11-10T03:30:58.010Z,10.90
2022-11-10T03:32:51.619Z,10.90
2022-11-10T03:34:44.739Z,10.90
2022-11-10T03:36:38.023Z,10.90
2022-11-10T03:38:32.599Z,10.90
2022-11-10T03:40:26.002Z,11.00
2022-11-10T03:42:19.115Z,10.90
2022-11-10T03:44:12.369Z,10.90
2022-11-10T03:46:05.526Z,10.90
2022-11-10T03:47:58.640Z,10.80
2022-11-10T03:49:51.845Z,10.90
2022-11-10T03:51:44.967Z,10.90
2022-11-10T03:53:39.660Z,10.90
2022-11-10T03:55:33.132Z,10.90
2022-11-10T03:57:26.313Z,10.90
2022-11-10T03:59:19.395Z,10.90
2022-11-10T04:01:12.505Z,10.90
2022-11-10T04:03:05.640Z,10.90
2022-11-10T04:05:16.596Z,10.90
2022-11-10T04:07:30.004Z,10.90
2022-11-10T04:09:24.648Z,10.90
2022-11-10T04:11:37.973Z,10.90
2022-11-10T04:13:48.712Z,10.90
2022-11-10T04:15:43.513Z,10.90
2022-11-10T04:17:36.581Z,10.90
2022-11-10T04:19:30.558Z,10.90
2022-11-10T04:21:23.620Z,10.90
2022-11-10T04:23:29.040Z,10.90
2022-11-10T04:25:23.419Z,10.90
2022-11-10T04:27:15.717Z,10.90
2022-11-10T04:29:11.056Z,10.90
2022-11-10T04:31:04.530Z,10.90
2022-11-10T04:32:57.789Z,10.90
2022-11-10T04:34:50.982Z,10.90
2022-11-10T04:36:46.631Z,10.90
2022-11-10T04:38:40.906Z,10.90
2022-11-10T04:40:35.372Z,10.90
2022-11-10T04:42:28.561Z,10.90
2022-11-10T04:44:21.886Z,10.90
2022-11-10T04:46:24.298Z,10.90
2022-11-10T04:48:17.445Z,10.90
2022-11-10T04:50:11.140Z,10.90
2022-11-10T04:52:04.400Z,10.90
2022-11-10T04:53:58.395Z,10.90
2022-11-10T04:55:54.639Z,10.90
2022-11-10T04:57:47.721Z,10.90
2022-11-10T04:59:40.798Z,11.00
2022-11-10T05:01:34.193Z,10.90
2022-11-10T05:03:27.490Z,10.90
2022-11-10T05:05:20.508Z,10.90
2022-11-10T05:07:13.693Z,10.90
2022-11-10T05:09:07.108Z,10.90
2022-11-10T05:11:01.762Z,10.90
2022-11-10T05:12:55.663Z,10.90
2022-11-10T05:14:48.925Z,11.00
2022-11-10T05:16:43.324Z,11.00
2022-11-10T05:18:36.867Z,10.90
2022-11-10T05:20:29.994Z,10.90
2022-11-10T05:22:23.055Z,10.90
2022-11-10T05:24:15.312Z,11.00
2022-11-10T05:26:12.632Z,11.00
2022-11-10T05:28:07.326Z,10.90
2022-11-10T05:30:00.603Z,10.90
2022-11-10T05:31:53.729Z,10.90
2022-11-10T05:33:46.788Z,10.90
2022-11-10T05:35:40.820Z,10.90
2022-11-10T05:37:34.099Z,10.90
2022-11-10T05:39:27.173Z,10.90
2022-11-10T05:41:21.639Z,10.90
2022-11-10T05:43:15.418Z,10.90
2022-11-10T05:45:10.063Z,10.90
2022-11-10T05:47:03.210Z,10.90
2022-11-10T05:48:56.459Z,10.90
2022-11-10T05:50:49.703Z,10.90
2022-11-10T05:52:50.021Z,10.90
2022-11-10T05:54:44.735Z,10.90
2022-11-10T05:56:39.220Z,10.90
2022-11-10T05:58:32.339Z,10.90
2022-11-10T06:00:28.649Z,10.90
2022-11-10T06:02:22.066Z,10.90
2022-11-10T06:04:15.174Z,10.90
2022-11-10T06:06:09.238Z,10.90
2022-11-10T06:08:04.017Z,10.90
2022-11-10T06:09:57.139Z,10.90
2022-11-10T06:11:51.586Z,10.90
2022-11-10T06:13:44.732Z,10.90
2022-11-10T06:15:38.003Z,10.90
2022-11-10T06:17:31.193Z,10.90
2022-11-10T06:19:24.298Z,10.90
2022-11-10T06:21:17.399Z,10.80
2022-11-10T06:23:12.990Z,10.80
2022-11-10T06:25:07.708Z,10.80
2022-11-10T06:27:02.315Z,10.80
2022-11-10T06:28:55.451Z,10.80
2022-11-10T06:30:49.132Z,10.80
2022-11-10T06:32:44.673Z,10.80
2022-11-10T06:34:37.724Z,10.80
2022-11-10T06:36:30.864Z,10.80
2022-11-10T06:38:24.296Z,10.80
2022-11-10T06:40:17.605Z,10.80
2022-11-10T06:42:12.456Z,10.80
2022-11-10T06:44:06.398Z,10.80
2022-11-10T06:46:00.259Z,10.80
2022-11-10T06:48:01.468Z,10.80
2022-11-10T06:49:54.756Z,10.80
2022-11-10T06:51:48.971Z,10.80
2022-11-10T06:53:43.077Z,10.80
2022-11-10T06:55:36.272Z,10.80
2022-11-10T06:57:30.724Z,10.80
2022-11-10T06:59:23.776Z,10.80
2022-11-10T07:01:22.106Z,10.80
2022-11-10T07:03:17.435Z,10.80
2022-11-10T07:05:10.744Z,10.80
2022-11-10T07:07:04.283Z,10.80
2022-11-10T07:08:57.457Z,10.80
2022-11-10T07:10:54.561Z,10.80
2022-11-10T07:12:49.034Z,10.80
2022-11-10T07:14:42.151Z,10.80
2022-11-10T07:16:36.254Z,10.80
2022-11-10T07:18:29.621Z,10.80
2022-11-10T07:20:23.012Z,10.80
2022-11-10T07:22:16.348Z,10.80
2022-11-10T07:24:10.476Z,10.80
2022-11-10T07:26:03.661Z,10.80
2022-11-10T07:28:00.311Z,10.80
2022-11-10T07:29:53.423Z,10.80
2022-11-10T07:31:46.532Z,10.80
2022-11-10T07:33:39.862Z,10.80
2022-11-10T07:35:34.885Z,10.80
2022-11-10T07:37:28.701Z,10.80
2022-11-10T07:39:21.747Z,10.80
2022-11-10T07:41:14.935Z,10.80
2022-11-10T07:43:10.778Z,10.80
2022-11-10T07:45:03.950Z,10.80
2022-11-10T07:46:57.205Z,10.80
2022-11-10T07:48:51.444Z,10.80
2022-11-10T07:50:44.678Z,10.90
2022-11-10T07:52:37.846Z,10.90
2022-11-10T07:54:31.061Z,10.80
2022-11-10T07:56:24.252Z,10.90
2022-11-10T07:58:19.714Z,10.90
2022-11-10T08:00:14.887Z,10.90
2022-11-10T08:02:10.675Z,10.90
2022-11-10T08:04:04.060Z,10.90
2022-11-10T08:05:57.532Z,10.90
2022-11-10T08:07:50.667Z,10.90
2022-11-10T08:09:44.330Z,10.90
2022-11-10T08:11:37.484Z,10.90
2022-11-10T08:13:31.967Z,10.90
2022-11-10T08:15:26.750Z,10.90
2022-11-10T08:17:19.896Z,10.90
2022-11-10T08:19:13.593Z,10.90
2022-11-10T08:21:07.302Z,10.90
2022-11-10T08:23:02.717Z,10.90
2022-11-10T08:24:56.094Z,10.90
2022-11-10T08:26:49.245Z,10.90
2022-11-10T08:28:44.125Z,10.90
2022-11-10T08:30:39.999Z,10.90
2022-11-10T08:32:33.224Z,10.90
2022-11-10T08:34:26.483Z,10.90
2022-11-10T08:36:20.074Z,10.90
2022-11-10T08:38:16.595Z,10.90
2022-11-10T08:40:11.504Z,10.90
2022-11-10T08:42:06.452Z,10.90
2022-11-10T08:44:01.009Z,10.90
2022-11-10T08:45:57.257Z,11.00
2022-11-10T08:48:00.152Z,11.00
2022-11-10T08:49:53.266Z,11.00
2022-11-10T08:51:46.551Z,11.00
2022-11-10T08:53:39.893Z,11.00
2022-11-10T08:55:33.136Z,11.00
2022-11-10T08:57:26.403Z,11.00
2022-11-10T08:59:20.914Z,11.00
2022-11-10T09:01:14.539Z,11.00
2022-11-10T09:03:11.942Z,11.00
2022-11-10T09:05:05.489Z,11.00
2022-11-10T09:06:59.358Z,11.10
2022-11-10T09:08:52.956Z,11.10
2022-11-10T09:10:50.102Z,11.10
2022-11-10T09:12:44.395Z,11.10
2022-11-10T09:14:39.086Z,11.10
2022-11-10T09:16:32.541Z,11.10
2022-11-10T09:18:25.892Z,11.10
2022-11-10T09:20:19.348Z,11.20
2022-11-10T09:22:12.463Z,11.20
2022-11-10T09:24:06.763Z,11.20
2022-11-10T09:25:59.871Z,11.20
2022-11-10T09:27:53.014Z,11.20
2022-11-10T09:29:47.546Z,11.20
2022-11-10T09:31:41.489Z,11.20
2022-11-10T09:33:34.606Z,11.30
2022-11-10T09:35:29.211Z,11.30
2022-11-10T09:37:22.504Z,11.40
2022-11-10T09:39:16.230Z,11.40
2022-11-10T09:41:13.821Z,11.40
2022-11-10T09:43:16.096Z,11.40
2022-11-10T09:45:23.633Z,11.50
2022-11-10T09:49:45.654Z,11.50
2022-11-10T09:51:48.169Z,11.60
2022-11-10T09:53:51.337Z,11.70
2022-11-10T09:55:50.209Z,11.70
2022-11-10T09:57:48.866Z,11.80
2022-11-10T09:59:44.639Z,11.90
2022-11-10T10:01:49.050Z,11.90
2022-11-10T10:03:49.915Z,12.00
2022-11-10T10:06:02.237Z,12.10
2022-11-10T10:08:03.036Z,12.10
2022-11-10T10:10:06.245Z,12.20
2022-11-10T10:12:20.051Z,12.30
2022-11-10T10:14:48.186Z,12.30
2022-11-10T10:16:52.269Z,12.40
2022-11-10T10:19:00.350Z,12.50
2022-11-10T10:21:18.438Z,12.50
2022-11-10T10:23:46.773Z,12.50
2022-11-10T10:25:42.551Z,12.50
2022-11-10T10:27:41.361Z,12.60
2022-11-10T10:29:41.774Z,12.60
2022-11-10T10:31:40.477Z,12.60
2022-11-10T10:33:34.937Z,12.70
2022-11-10T10:35:31.245Z,12.70
2022-11-10T10:37:28.920Z,12.70
2022-11-10T10:39:30.201Z,12.80
2022-11-10T10:41:27.288Z,12.90
2022-11-10T10:43:20.550Z,12.90
2022-11-10T10:45:20.756Z,13.00
2022-11-10T10:47:13.974Z,13.10
2022-11-10T10:49:33.733Z,13.10
2022-11-10T10:51:31.613Z,13.20
2022-11-10T10:53:26.154Z,13.30
2022-11-10T10:55:19.578Z,13.30
2022-11-10T10:57:24.918Z,13.40
2022-11-10T10:59:23.290Z,13.50
2022-11-10T11:01:30.597Z,13.50
2022-11-10T11:03:29.831Z,13.50
2022-11-10T11:05:24.657Z,13.50
2022-11-10T11:07:24.881Z,13.50
2022-11-10T11:09:23.451Z,13.60
2022-11-10T11:11:16.565Z,13.60
2022-11-10T11:13:21.826Z,13.60
2022-11-10T11:15:26.716Z,13.60
2022-11-10T11:17:22.679Z,13.60
2022-11-10T11:19:16.415Z,13.60
2022-11-10T11:21:26.478Z,13.60
2022-11-10T11:23:43.928Z,13.60
2022-11-10T11:25:43.367Z,13.70
2022-11-10T11:27:47.217Z,13.70
2022-11-10T11:30:09.169Z,13.70
2022-11-10T11:32:21.985Z,13.80
2022-11-10T11:34:25.048Z,13.70
2022-11-10T11:36:30.604Z,13.80
2022-11-10T11:38:33.088Z,13.80
2022-11-10T11:40:38.241Z,13.80
2022-11-10T11:42:49.212Z,13.90
2022-11-10T11:45:01.360Z,13.80
2022-11-10T11:47:06.865Z,13.80
2022-11-10T11:49:26.888Z,13.90
2022-11-10T11:51:29.293Z,13.80
2022-11-10T11:53:44.566Z,13.80
2022-11-10T11:56:00.457Z,13.80
2022-11-10T11:58:18.399Z,13.80
2022-11-10T12:00:16.406Z,13.80
2022-11-10T12:03:02.816Z,13.80
2022-11-10T12:05:13.737Z,13.80
2022-11-10T12:07:28.973Z,13.80
2022-11-10T12:09:34.869Z,13.80
2022-11-10T12:11:49.699Z,13.80
2022-11-10T12:13:58.746Z,13.80
2022-11-10T12:16:00.442Z,13.80
2022-11-10T12:18:07.855Z,13.90
2022-11-10T12:20:15.968Z,13.90
2022-11-10T12:22:25.053Z,13.90
2022-11-10T12:24:56.185Z,13.90
2022-11-10T12:26:58.179Z,13.90
2022-11-10T12:29:00.028Z,13.90
2022-11-10T12:31:02.103Z,13.90
2022-11-10T12:33:03.436Z,14.00
2022-11-10T12:35:04.234Z,14.00
2022-11-10T12:37:00.975Z,14.00
2022-11-10T12:39:04.280Z,14.00
2022-11-10T12:41:08.828Z,14.10
2022-11-10T12:43:05.952Z,14.10
2022-11-10T12:45:03.836Z,14.00
2022-11-10T12:47:03.256Z,14.10
2022-11-10T12:49:11.496Z,14.10
2022-11-10T12:51:11.677Z,14.10
2022-11-10T12:53:15.185Z,14.10
2022-11-10T12:55:14.796Z,14.20
2022-11-10T12:57:15.281Z,14.10
2022-11-10T12:59:33.029Z,14.20
2022-11-10T13:01:26.409Z,14.20
2022-11-10T13:03:32.505Z,14.20
2022-11-10T13:05:35.189Z,14.20
2022-11-10T13:07:28.483Z,14.20
2022-11-10T13:09:28.959Z,14.20
2022-11-10T13:11:28.779Z,14.10
2022-11-10T13:13:24.212Z,14.10
2022-11-10T13:15:47.500Z,14.10
2022-11-10T13:17:56.777Z,14.10
2022-11-10T13:19:54.285Z,14.10
2022-11-10T13:22:11.085Z,14.10
2022-11-10T13:24:24.831Z,14.10
2022-11-10T13:26:52.571Z,14.10
2022-11-10T13:29:01.593Z,14.00
2022-11-10T13:30:54.910Z,14.10
2022-11-10T13:32:48.020Z,14.00
2022-11-10T13:34:42.122Z,14.00
2022-11-10T13:36:39.842Z,14.00
2022-11-10T13:38:39.780Z,14.00
2022-11-10T13:40:39.556Z,14.00
2022-11-10T13:42:34.073Z,14.00
2022-11-10T13:44:30.733Z,14.00
2022-11-10T13:46:36.062Z,14.00
2022-11-10T13:48:54.283Z,14.00
2022-11-10T13:50:55.239Z,14.00
2022-11-10T13:53:10.183Z,14.00
2022-11-10T13:55:19.974Z,14.00
2022-11-10T13:57:31.105Z,14.00
2022-11-10T13:59:29.477Z,14.00
2022-11-10T14:01:30.159Z,14.00
2022-11-10T14:03:57.692Z,14.00
2022-11-10T14:06:13.473Z,14.00
2022-11-10T14:08:14.193Z,14.00
2022-11-10T14:10:17.194Z,14.00
2022-11-10T14:12:26.707Z,13.90
2022-11-10T14:14:30.213Z,13.90
2022-11-10T14:16:26.083Z,13.90
2022-11-10T14:18:24.901Z,13.90
2022-11-10T14:20:26.932Z,13.90
2022-11-10T14:22:29.013Z,13.90
2022-11-10T14:24:29.089Z,13.90
2022-11-10T14:26:30.011Z,13.90
2022-11-10T14:28:27.208Z,13.90
2022-11-10T14:30:25.800Z,13.80
2022-11-10T14:32:22.550Z,13.90
2022-11-10T14:34:18.458Z,13.80
2022-11-10T14:36:14.985Z,13.80
2022-11-10T14:38:20.974Z,13.80
2022-11-10T14:40:20.830Z,13.80
2022-11-10T14:42:21.560Z,13.80
2022-11-10T14:44:22.552Z,13.80
2022-11-10T14:46:16.964Z,13.80
2022-11-10T14:48:20.687Z,13.80
2022-11-10T14:50:22.081Z,13.70
2022-11-10T14:52:15.485Z,13.70
2022-11-10T14:54:25.429Z,13.70
2022-11-10T14:56:25.921Z,13.70
2022-11-10T14:58:26.375Z,13.70
2022-11-10T15:00:28.369Z,13.70
2022-11-10T15:02:23.011Z,13.70
2022-11-10T15:04:17.171Z,13.70
2022-11-10T15:06:13.058Z,13.60
2022-11-10T15:08:07.505Z,13.60
2022-11-10T15:10:13.949Z,13.60
2022-11-10T15:12:21.105Z,13.60
2022-11-10T15:14:38.116Z,13.50
2022-11-10T15:16:34.078Z,13.50
2022-11-10T15:18:31.084Z,13.50
2022-11-10T15:20:30.295Z,13.50
2022-11-10T15:22:30.589Z,13.50
2022-11-10T15:24:26.990Z,13.40
2022-11-10T15:26:24.641Z,13.40
2022-11-10T15:28:30.284Z,13.30
2022-11-10T15:30:26.680Z,13.30
2022-11-10T15:32:23.891Z,13.30
2022-11-10T15:34:44.223Z,13.20
2022-11-10T15:36:40.357Z,13.20
2022-11-10T15:38:33.767Z,13.10
2022-11-10T15:40:36.052Z,13.10
2022-11-10T15:42:29.306Z,13.10
2022-11-10T15:44:26.205Z,13.00
2022-11-10T15:46:24.705Z,12.90
2022-11-10T15:48:19.659Z,12.90
2022-11-10T15:50:16.078Z,12.80
2022-11-10T15:52:19.996Z,12.70
2022-11-10T15:54:13.564Z,12.70
2022-11-10T15:56:09.092Z,12.60
2022-11-10T15:58:02.443Z,12.50
2022-11-10T15:59:55.832Z,12.50
2022-11-10T16:01:50.939Z,12.40
2022-11-10T16:03:44.791Z,12.30
2022-11-10T16:05:41.060Z,12.30
2022-11-10T16:07:34.202Z,12.20
2022-11-10T16:09:27.287Z,12.10
2022-11-10T16:11:22.878Z,12.10
2022-11-10T16:13:19.418Z,12.00
2022-11-10T16:15:21.263Z,11.90
2022-11-10T16:17:14.925Z,11.80
2022-11-10T16:19:10.442Z,11.80
2022-11-10T16:21:05.120Z,11.70
2022-11-10T16:22:58.366Z,11.60
2022-11-10T16:24:51.500Z,11.60
2022-11-10T16:26:44.713Z,11.50
2022-11-10T16:28:37.848Z,11.50
2022-11-10T16:30:31.314Z,11.40
2022-11-10T16:32:24.698Z,11.40
2022-11-10T16:34:17.915Z,11.30
2022-11-10T16:36:24.894Z,11.20
2022-11-10T16:38:23.050Z,11.20
2022-11-10T16:40:18.564Z,11.10
2022-11-10T16:42:12.858Z,11.00
2022-11-10T16:44:07.119Z,11.00
2022-11-10T16:46:05.656Z,10.90
2022-11-10T16:47:59.332Z,10.90
2022-11-10T16:49:52.612Z,10.80
2022-11-10T16:51:49.161Z,10.80
2022-11-10T16:53:43.262Z,10.70
2022-11-10T16:55:36.698Z,10.70
2022-11-10T16:57:30.030Z,10.60
2022-11-10T16:59:23.730Z,10.50
2022-11-10T17:01:21.762Z,10.50
2022-11-10T17:03:22.588Z,10.40
2022-11-10T17:05:16.740Z,10.40
2022-11-10T17:07:15.455Z,10.30
2022-11-10T17:09:17.334Z,10.30
2022-11-10T17:11:11.046Z,10.20
2022-11-10T17:13:04.579Z,10.20
2022-11-10T17:14:57.892Z,10.10
2022-11-10T17:16:51.209Z,10.10
2022-11-10T17:18:45.793Z,10.10
2022-11-10T17:20:43.306Z,10.00
2022-11-10T17:22:37.743Z,9.90
2022-11-10T17:24:31.102Z,9.90
2022-11-10T17:26:24.248Z,9.90
2022-11-10T17:28:20.252Z,9.80
2022-11-10T17:30:14.741Z,9.80
2022-11-10T17:32:07.929Z,9.70
2022-11-10T17:34:01.094Z,9.70
2022-11-10T17:35:55.112Z,9.70
2022-11-10T17:37:54.928Z,9.60
2022-11-10T17:39:48.091Z,9.50
2022-11-10T17:41:41.247Z,9.50
2022-11-10T17:43:34.367Z,9.50
2022-11-10T17:45:29.922Z,9.40
2022-11-10T17:47:22.967Z,9.40
2022-11-10T17:49:16.116Z,9.40
2022-11-10T17:51:14.896Z,9.30
2022-11-10T17:53:21.208Z,9.30
2022-11-10T17:55:20.661Z,9.20
2022-11-10T17:57:14.149Z,9.20
2022-11-10T17:59:07.295Z,9.20
2022-11-10T18:01:00.585Z,9.20
2022-11-10T18:02:55.658Z,9.20
2022-11-10T18:04:49.026Z,9.10
2022-11-10T18:06:42.276Z,9.10
2022-11-10T18:08:37.734Z,9.10
2022-11-10T18:10:31.205Z,9.00
2022-11-10T18:12:27.959Z,9.00
2022-11-10T18:14:21.291Z,9.00
2022-11-10T18:16:15.422Z,9.00
2022-11-10T18:18:13.136Z,8.90
2022-11-10T18:20:10.014Z,8.90
2022-11-10T18:22:03.180Z,8.90
2022-11-10T18:23:57.627Z,8.80
2022-11-10T18:25:51.096Z,8.80
2022-11-10T18:27:44.287Z,8.80
2022-11-10T18:29:37.416Z,8.80
2022-11-10T18:31:30.705Z,8.70
2022-11-10T18:33:24.243Z,8.70
2022-11-10T18:35:17.941Z,8.70
2022-11-10T18:37:11.065Z,8.60
2022-11-10T18:39:05.592Z,8.60
2022-11-10T18:41:25.443Z,8.60
2022-11-10T18:43:18.842Z,8.50
2022-11-10T18:45:12.866Z,8.50
2022-11-10T18:47:07.061Z,8.50
2022-11-10T18:49:00.372Z,8.40
2022-11-10T18:50:53.544Z,8.40
2022-11-10T18:52:47.560Z,8.40
2022-11-10T18:54:42.146Z,8.40
2022-11-10T18:56:35.635Z,8.30
2022-11-10T18:58:28.836Z,8.30
2022-11-10T19:00:22.346Z,8.30
2022-11-10T19:02:15.782Z,8.20
2022-11-10T19:04:09.300Z,8.20
2022-11-10T19:06:03.408Z,8.20
2022-11-10T19:07:56.682Z,8.20
2022-11-10T19:09:51.131Z,8.10
2022-11-10T19:11:44.801Z,8.10
2022-11-10T19:13:39.393Z,8.10
2022-11-10T19:15:32.579Z,8.10
2022-11-10T19:17:25.667Z,8.10
2022-11-10T19:19:18.760Z,8.10
2022-11-10T19:21:14.848Z,8.10
2022-11-10T19:23:08.097Z,8.00
2022-11-10T19:25:09.770Z,8.00
2022-11-10T19:27:03.083Z,8.00
2022-11-10T19:28:57.247Z,8.00
2022-11-10T19:30:50.319Z,8.00
2022-11-10T19:32:43.608Z,8.00
2022-11-10T19:34:36.685Z,7.90
2022-11-10T19:36:30.180Z,7.90
2022-11-10T19:38:23.344Z,7.90
2022-11-10T19:40:17.908Z,7.90
2022-11-10T19:42:11.412Z,7.90
2022-11-10T19:44:04.924Z,7.80
2022-11-10T19:46:01.784Z,7.80
2022-11-10T19:47:57.123Z,7.80
2022-11-10T19:49:50.388Z,7.80
2022-11-10T19:51:43.520Z,7.70
2022-11-10T19:53:36.897Z,7.70
2022-11-10T19:55:33.296Z,7.70
2022-11-10T19:57:27.911Z,7.70
2022-11-10T19:59:21.151Z,7.70
2022-11-10T20:01:16.111Z,7.70
2022-11-10T20:03:11.347Z,7.70
2022-11-10T20:05:15.847Z,7.60
2022-11-10T20:07:26.549Z,7.60
2022-11-10T20:09:22.798Z,7.60
2022-11-10T20:11:21.045Z,7.60
2022-11-10T20:13:17.031Z,7.50
2022-11-10T20:15:14.470Z,7.50
2022-11-10T20:17:07.772Z,7.50
2022-11-10T20:19:01.177Z,7.50
2022-11-10T20:20:54.333Z,7.50
2022-11-10T20:22:47.429Z,7.40
2022-11-10T20:24:47.068Z,7.40
2022-11-10T20:26:45.413Z,7.40
2022-11-10T20:28:39.746Z,7.30
2022-11-10T20:30:35.265Z,7.30
2022-11-10T20:32:28.663Z,7.30
2022-11-10T20:34:21.774Z,7.30
2022-11-10T20:36:20.869Z,7.30
2022-11-10T20:38:16.645Z,7.30
2022-11-10T20:40:37.725Z,7.30
2022-11-10T20:42:25.313Z,7.20
2022-11-10T20:44:18.443Z,7.20
2022-11-10T20:46:33.197Z,7.20
2022-11-10T20:48:31.891Z,7.20
2022-11-10T20:50:24.928Z,7.20
2022-11-10T20:52:18.450Z,7.20
2022-11-10T20:54:11.592Z,7.10
2022-11-10T20:56:05.684Z,7.10
2022-11-10T20:58:00.081Z,7.10
2022-11-10T20:59:53.235Z,7.10
2022-11-10T21:01:47.431Z,7.10
2022-11-10T21:03:41.393Z,7.00
2022-11-10T21:05:34.425Z,7.10
2022-11-10T21:07:27.575Z,7.00
2022-11-10T21:09:20.885Z,7.00
2022-11-10T21:11:34.184Z,7.00
2022-11-10T21:13:28.605Z,7.00
2022-11-10T21:15:22.528Z,7.00
2022-11-10T21:17:15.615Z,7.00
2022-11-10T21:19:09.012Z,6.90
2022-11-10T21:21:02.393Z,6.90
2022-11-10T21:23:02.110Z,6.90
2022-11-10T21:24:56.529Z,6.90
2022-11-10T21:26:49.800Z,6.90
2022-11-10T21:28:44.395Z,6.90
2022-11-10T21:30:37.681Z,6.90
2022-11-10T21:32:31.029Z,6.90
2022-11-10T21:34:24.157Z,6.90
2022-11-10T21:36:17.541Z,6.90
2022-11-10T21:38:12.904Z,6.90
2022-11-10T21:40:07.673Z,6.90
2022-11-10T21:42:00.793Z,6.80
2022-11-10T21:43:55.463Z,6.80
2022-11-10T21:45:48.546Z,6.80
2022-11-10T21:47:41.785Z,6.80
2022-11-10T21:49:34.883Z,6.80
2022-11-10T21:51:27.968Z,6.80
2022-11-10T21:53:21.574Z,6.80
2022-11-10T21:55:14.999Z,6.80
2022-11-10T21:57:08.101Z,6.80
2022-11-10T21:59:02.899Z,6.70
2022-11-10T22:01:02.608Z,6.70
2022-11-10T22:02:59.319Z,6.70
2022-11-10T22:04:52.607Z,6.70
2022-11-10T22:07:03.498Z,6.70
2022-11-10T22:08:56.632Z,6.70
2022-11-10T22:11:07.552Z,6.70
2022-11-10T22:13:18.071Z,6.60
2022-11-10T22:15:33.539Z,6.60
2022-11-10T22:17:44.014Z,6.60
2022-11-10T22:19:38.126Z,6.60
2022-11-10T22:21:31.385Z,6.50
2022-11-10T22:23:44.765Z,6.50
2022-11-10T22:25:38.784Z,6.50
2022-11-10T22:27:31.854Z,6.50
2022-11-10T22:29:31.222Z,6.40
2022-11-10T22:31:26.396Z,6.40
2022-11-10T22:33:28.375Z,6.40
2022-11-10T22:35:35.378Z,6.40
2022-11-10T22:37:32.795Z,6.30
2022-11-10T22:39:46.232Z,6.30
2022-11-10T22:41:56.845Z,6.30
2022-11-10T22:44:04.791Z,6.30
2022-11-10T22:45:58.026Z,6.20
2022-11-10T22:48:12.434Z,6.20
2022-11-10T22:50:06.933Z,6.30
2022-11-10T22:52:00.028Z,6.20
2022-11-10T22:53:53.316Z,6.10
2022-11-10T22:55:46.557Z,6.10
2022-11-10T22:57:39.648Z,6.10
2022-11-10T22:59:32.687Z,6.00
2022-11-10T23:01:26.218Z,6.00
2022-11-10T23:03:20.914Z,6.00
2022-11-10T23:05:14.506Z,6.00
2022-11-10T23:07:07.663Z,5.90
2022-11-10T23:09:01.284Z,5.90
2022-11-10T23:11:00.368Z,5.90
2022-11-10T23:12:55.181Z,5.90
2022-11-10T23:14:48.373Z,5.90
2022-11-10T23:16:41.763Z,5.90
2022-11-10T23:18:37.009Z,5.80
2022-11-10T23:20:30.234Z,5.80
2022-11-10T23:22:23.469Z,5.80
2022-11-10T23:24:20.780Z,5.80
2022-11-10T23:26:18.695Z,5.80
2022-11-10T23:28:12.037Z,5.70
2022-11-10T23:30:06.087Z,5.70
2022-11-10T23:31:59.338Z,5.70
2022-11-10T23:33:55.565Z,5.70
2022-11-10T23:35:49.056Z,5.70
2022-11-10T23:37:42.266Z,5.60
2022-11-10T23:39:35.325Z,5.60
2022-11-10T23:41:28.401Z,5.60
2022-11-10T23:43:21.929Z,5.60
2022-11-10T23:45:15.414Z,5.50
2022-11-10T23:47:08.526Z,5.50
2022-11-10T23:49:03.038Z,5.50
2022-11-10T23:50:56.440Z,5.50
2022-11-10T23:52:49.464Z,5.50
2022-11-10T23:54:42.788Z,5.50
2022-11-10T23:56:36.092Z,5.40
2022-11-10T23:58:29.904Z,5.40
